sensor_id;sensor_type;location;lat;lon;timestamp;temperature;humidity
62998;DHT22;55949;52.590;7.330;2022-07-29T00:00:34;16.40;99.90
62998;DHT22;55949;52.590;7.330;2022-07-29T00:01:34;16.40;99.90
62998;DHT22;55949;52.590;7.330;2022-07-29T00:02:35;16.40;99.90
62998;DHT22;55949;52.590;7.330;2022-07-29T00:03:36;16.40;99.90
62998;DHT22;55949;52.590;7.330;2022-07-29T00:04:37;16.40;99.90
62998;DHT22;55949;52.590;7.330;2022-07-29T00:05:39;16.40;99.90
62998;DHT22;55949;52.590;7.330;2022-07-29T00:06:40;16.40;99.90
62998;DHT22;55949;52.590;7.330;2022-07-29T00:07:41;16.40;99.90
62998;DHT22;55949;52.590;7.330;2022-07-29T00:08:42;16.40;99.90
62998;DHT22;55949;52.590;7.330;2022-07-29T00:09:43;16.40;99.90
62998;DHT22;55949;52.590;7.330;2022-07-29T00:10:43;16.40;99.90
62998;DHT22;55949;52.590;7.330;2022-07-29T00:11:44;16.40;99.90
62998;DHT22;55949;52.590;7.330;2022-07-29T00:12:45;16.40;99.90
62998;DHT22;55949;52.590;7.330;2022-07-29T00:13:45;16.40;99.90
62998;DHT22;55949;52.590;7.330;2022-07-29T00:14:46;16.40;99.90
62998;DHT22;55949;52.590;7.330;2022-07-29T00:15:46;16.40;99.90
62998;DHT22;55949;52.590;7.330;2022-07-29T00:16:47;16.40;99.90
62998;DHT22;55949;52.590;7.330;2022-07-29T00:17:48;16.40;99.90
62998;DHT22;55949;52.590;7.330;2022-07-29T00:18:49;16.40;99.90
62998;DHT22;55949;52.590;7.330;2022-07-29T00:19:49;16.40;99.90
62998;DHT22;55949;52.590;7.330;2022-07-29T00:20:50;16.40;99.90
62998;DHT22;55949;52.590;7.330;2022-07-29T00:21:51;16.40;99.90
62998;DHT22;55949;52.590;7.330;2022-07-29T00:22:52;16.30;99.90
62998;DHT22;55949;52.590;7.330;2022-07-29T00:23:53;16.30;99.90
62998;DHT22;55949;52.590;7.330;2022-07-29T00:24:54;16.30;99.90
62998;DHT22;55949;52.590;7.330;2022-07-29T00:25:55;16.20;99.90
62998;DHT22;55949;52.590;7.330;2022-07-29T00:26:55;16.20;99.90
62998;DHT22;55949;52.590;7.330;2022-07-29T00:27:56;16.20;99.90
62998;DHT22;55949;52.590;7.330;2022-07-29T00:28:59;16.20;99.90
62998;DHT22;55949;52.590;7.330;2022-07-29T00:29:59;16.20;99.90
62998;DHT22;55949;52.590;7.330;2022-07-29T00:31:00;16.20;99.90
62998;DHT22;55949;52.590;7.330;2022-07-29T00:32:02;16.20;99.90
62998;DHT22;55949;52.590;7.330;2022-07-29T00:33:03;16.10;99.90
62998;DHT22;55949;52.590;7.330;2022-07-29T00:34:03;16.20;99.90
62998;DHT22;55949;52.590;7.330;2022-07-29T00:35:05;16.20;99.90
62998;DHT22;55949;52.590;7.330;2022-07-29T00:36:24;16.20;99.90
62998;DHT22;55949;52.590;7.330;2022-07-29T00:37:25;16.20;99.90
62998;DHT22;55949;52.590;7.330;2022-07-29T00:38:25;16.20;99.90
62998;DHT22;55949;52.590;7.330;2022-07-29T00:39:26;16.10;99.90
62998;DHT22;55949;52.590;7.330;2022-07-29T00:40:27;16.10;99.90
62998;DHT22;55949;52.590;7.330;2022-07-29T00:41:28;16.10;99.90
62998;DHT22;55949;52.590;7.330;2022-07-29T00:42:28;16.10;99.90
62998;DHT22;55949;52.590;7.330;2022-07-29T00:43:29;16.10;99.90
62998;DHT22;55949;52.590;7.330;2022-07-29T00:44:30;16.10;99.90
62998;DHT22;55949;52.590;7.330;2022-07-29T00:45:31;16.10;99.90
62998;DHT22;55949;52.590;7.330;2022-07-29T00:46:31;16.10;99.90
62998;DHT22;55949;52.590;7.330;2022-07-29T00:47:32;16.10;99.90
62998;DHT22;55949;52.590;7.330;2022-07-29T00:48:33;16.10;99.90
62998;DHT22;55949;52.590;7.330;2022-07-29T00:49:34;16.10;99.90
62998;DHT22;55949;52.590;7.330;2022-07-29T00:50:36;16.10;99.90
62998;DHT22;55949;52.590;7.330;2022-07-29T00:51:37;16.10;99.90
62998;DHT22;55949;52.590;7.330;2022-07-29T00:52:40;16.10;99.90
62998;DHT22;55949;52.590;7.330;2022-07-29T00:53:41;16.10;99.90
62998;DHT22;55949;52.590;7.330;2022-07-29T00:54:42;16.10;99.90
62998;DHT22;55949;52.590;7.330;2022-07-29T00:55:43;16.10;99.90
62998;DHT22;55949;52.590;7.330;2022-07-29T00:56:44;16.00;99.90
62998;DHT22;55949;52.590;7.330;2022-07-29T00:57:45;16.00;99.90
62998;DHT22;55949;52.590;7.330;2022-07-29T00:58:47;16.00;99.90
62998;DHT22;55949;52.590;7.330;2022-07-29T00:59:48;16.10;99.90
62998;DHT22;55949;52.590;7.330;2022-07-29T01:00:49;16.00;99.90
62998;DHT22;55949;52.590;7.330;2022-07-29T01:01:49;16.00;99.90
62998;DHT22;55949;52.590;7.330;2022-07-29T01:02:50;16.10;99.90
62998;DHT22;55949;52.590;7.330;2022-07-29T01:03:51;16.10;99.90
62998;DHT22;55949;52.590;7.330;2022-07-29T01:04:53;16.10;99.90
62998;DHT22;55949;52.590;7.330;2022-07-29T01:05:54;16.10;99.90
62998;DHT22;55949;52.590;7.330;2022-07-29T01:06:55;16.20;99.90
62998;DHT22;55949;52.590;7.330;2022-07-29T01:07:57;16.20;99.90
62998;DHT22;55949;52.590;7.330;2022-07-29T01:08:58;16.10;99.90
62998;DHT22;55949;52.590;7.330;2022-07-29T01:10:01;16.10;99.90
62998;DHT22;55949;52.590;7.330;2022-07-29T01:11:02;16.10;99.90
62998;DHT22;55949;52.590;7.330;2022-07-29T01:12:04;16.10;99.90
62998;DHT22;55949;52.590;7.330;2022-07-29T01:13:05;16.10;99.90
62998;DHT22;55949;52.590;7.330;2022-07-29T01:14:08;16.10;99.90
62998;DHT22;55949;52.590;7.330;2022-07-29T01:15:09;16.10;99.90
62998;DHT22;55949;52.590;7.330;2022-07-29T01:16:42;16.10;99.90
62998;DHT22;55949;52.590;7.330;2022-07-29T01:18:11;16.10;99.90
62998;DHT22;55949;52.590;7.330;2022-07-29T01:19:48;16.10;99.90
62998;DHT22;55949;52.590;7.330;2022-07-29T01:22:42;16.00;99.90
62998;DHT22;55949;52.590;7.330;2022-07-29T01:26:57;16.00;99.90
62998;DHT22;55949;52.590;7.330;2022-07-29T01:29:53;16.10;99.90
62998;DHT22;55949;52.590;7.330;2022-07-29T01:30:55;16.10;99.90
62998;DHT22;55949;52.590;7.330;2022-07-29T01:32:18;16.10;99.90
62998;DHT22;55949;52.590;7.330;2022-07-29T01:33:20;16.00;99.90
62998;DHT22;55949;52.590;7.330;2022-07-29T01:34:52;16.00;99.90
62998;DHT22;55949;52.590;7.330;2022-07-29T01:35:53;16.00;99.90
62998;DHT22;55949;52.590;7.330;2022-07-29T01:37:18;15.90;99.90
62998;DHT22;55949;52.590;7.330;2022-07-29T01:38:21;15.90;99.90
62998;DHT22;55949;52.590;7.330;2022-07-29T01:39:33;15.90;99.90
62998;DHT22;55949;52.590;7.330;2022-07-29T01:43:46;15.90;99.90
62998;DHT22;55949;52.590;7.330;2022-07-29T01:46:05;15.90;99.90
62998;DHT22;55949;52.590;7.330;2022-07-29T01:47:14;16.00;99.90
62998;DHT22;55949;52.590;7.330;2022-07-29T01:48:29;16.00;99.90
62998;DHT22;55949;52.590;7.330;2022-07-29T01:49:36;16.00;99.90
62998;DHT22;55949;52.590;7.330;2022-07-29T01:51:04;16.10;99.90
62998;DHT22;55949;52.590;7.330;2022-07-29T01:52:11;16.00;99.90
62998;DHT22;55949;52.590;7.330;2022-07-29T01:53:16;15.90;99.90
62998;DHT22;55949;52.590;7.330;2022-07-29T01:54:20;16.00;99.90
62998;DHT22;55949;52.590;7.330;2022-07-29T01:55:25;15.90;99.90
62998;DHT22;55949;52.590;7.330;2022-07-29T01:56:28;15.90;99.90
62998;DHT22;55949;52.590;7.330;2022-07-29T01:57:33;15.90;99.90
62998;DHT22;55949;52.590;7.330;2022-07-29T01:58:36;15.90;99.90
62998;DHT22;55949;52.590;7.330;2022-07-29T01:59:40;15.90;99.90
62998;DHT22;55949;52.590;7.330;2022-07-29T02:00:44;15.90;99.90
62998;DHT22;55949;52.590;7.330;2022-07-29T02:01:47;15.90;99.90
62998;DHT22;55949;52.590;7.330;2022-07-29T02:02:49;15.90;99.90
62998;DHT22;55949;52.590;7.330;2022-07-29T02:03:53;15.80;99.90
62998;DHT22;55949;52.590;7.330;2022-07-29T02:04:56;15.80;99.90
62998;DHT22;55949;52.590;7.330;2022-07-29T02:05:58;15.80;99.90
62998;DHT22;55949;52.590;7.330;2022-07-29T02:07:05;15.80;99.90
62998;DHT22;55949;52.590;7.330;2022-07-29T02:08:07;15.70;99.90
62998;DHT22;55949;52.590;7.330;2022-07-29T02:09:10;15.70;99.90
62998;DHT22;55949;52.590;7.330;2022-07-29T02:10:13;15.70;99.90
62998;DHT22;55949;52.590;7.330;2022-07-29T02:11:15;15.60;99.90
62998;DHT22;55949;52.590;7.330;2022-07-29T02:12:18;15.70;99.90
62998;DHT22;55949;52.590;7.330;2022-07-29T02:13:20;15.70;99.90
62998;DHT22;55949;52.590;7.330;2022-07-29T02:14:23;15.60;99.90
62998;DHT22;55949;52.590;7.330;2022-07-29T02:15:27;15.60;99.90
62998;DHT22;55949;52.590;7.330;2022-07-29T02:16:31;15.60;99.90
62998;DHT22;55949;52.590;7.330;2022-07-29T02:17:37;15.70;99.90
62998;DHT22;55949;52.590;7.330;2022-07-29T02:18:42;15.60;99.90
62998;DHT22;55949;52.590;7.330;2022-07-29T02:19:46;15.60;99.90
62998;DHT22;55949;52.590;7.330;2022-07-29T02:20:51;15.60;99.90
62998;DHT22;55949;52.590;7.330;2022-07-29T02:21:54;15.70;99.90
62998;DHT22;55949;52.590;7.330;2022-07-29T02:22:57;15.70;99.90
62998;DHT22;55949;52.590;7.330;2022-07-29T02:24:01;15.70;99.90
62998;DHT22;55949;52.590;7.330;2022-07-29T02:25:02;15.70;99.90
62998;DHT22;55949;52.590;7.330;2022-07-29T02:26:04;15.70;99.90
62998;DHT22;55949;52.590;7.330;2022-07-29T02:27:07;15.70;99.90
62998;DHT22;55949;52.590;7.330;2022-07-29T02:28:08;15.70;99.90
62998;DHT22;55949;52.590;7.330;2022-07-29T02:29:10;15.60;99.90
62998;DHT22;55949;52.590;7.330;2022-07-29T02:30:12;15.60;99.90
62998;DHT22;55949;52.590;7.330;2022-07-29T02:31:13;15.60;99.90
62998;DHT22;55949;52.590;7.330;2022-07-29T02:32:16;15.60;99.90
62998;DHT22;55949;52.590;7.330;2022-07-29T02:33:18;15.60;99.90
62998;DHT22;55949;52.590;7.330;2022-07-29T02:34:20;15.60;99.90
62998;DHT22;55949;52.590;7.330;2022-07-29T02:35:22;15.60;99.90
62998;DHT22;55949;52.590;7.330;2022-07-29T02:36:23;15.60;99.90
62998;DHT22;55949;52.590;7.330;2022-07-29T02:37:26;15.60;99.90
62998;DHT22;55949;52.590;7.330;2022-07-29T02:38:28;15.60;99.90
62998;DHT22;55949;52.590;7.330;2022-07-29T02:39:49;15.60;99.90
62998;DHT22;55949;52.590;7.330;2022-07-29T02:40:52;15.70;99.90
62998;DHT22;55949;52.590;7.330;2022-07-29T02:42:09;15.70;99.90
62998;DHT22;55949;52.590;7.330;2022-07-29T02:43:11;15.70;99.90
62998;DHT22;55949;52.590;7.330;2022-07-29T02:44:17;15.60;99.90
62998;DHT22;55949;52.590;7.330;2022-07-29T02:45:18;15.60;99.90
62998;DHT22;55949;52.590;7.330;2022-07-29T02:46:23;15.60;99.90
62998;DHT22;55949;52.590;7.330;2022-07-29T02:47:52;15.50;99.90
62998;DHT22;55949;52.590;7.330;2022-07-29T02:48:59;15.60;99.90
62998;DHT22;55949;52.590;7.330;2022-07-29T02:50:15;15.60;99.90
62998;DHT22;55949;52.590;7.330;2022-07-29T02:51:29;15.60;99.90
62998;DHT22;55949;52.590;7.330;2022-07-29T02:53:44;15.70;99.90
62998;DHT22;55949;52.590;7.330;2022-07-29T02:55:00;15.60;99.90
62998;DHT22;55949;52.590;7.330;2022-07-29T02:56:06;15.60;99.90
62998;DHT22;55949;52.590;7.330;2022-07-29T02:57:58;15.60;99.90
62998;DHT22;55949;52.590;7.330;2022-07-29T02:58:41;15.60;99.90
62998;DHT22;55949;52.590;7.330;2022-07-29T02:59:44;15.50;99.90
62998;DHT22;55949;52.590;7.330;2022-07-29T03:00:47;15.50;99.90
62998;DHT22;55949;52.590;7.330;2022-07-29T03:01:49;15.50;99.90
62998;DHT22;55949;52.590;7.330;2022-07-29T03:02:52;15.40;99.90
62998;DHT22;55949;52.590;7.330;2022-07-29T03:03:55;15.40;99.90
62998;DHT22;55949;52.590;7.330;2022-07-29T03:04:58;15.40;99.90
62998;DHT22;55949;52.590;7.330;2022-07-29T03:06:01;15.50;99.90
62998;DHT22;55949;52.590;7.330;2022-07-29T03:07:03;15.50;99.90
62998;DHT22;55949;52.590;7.330;2022-07-29T03:08:07;15.50;99.90
62998;DHT22;55949;52.590;7.330;2022-07-29T03:09:10;15.50;99.90
62998;DHT22;55949;52.590;7.330;2022-07-29T03:10:13;15.40;99.90
62998;DHT22;55949;52.590;7.330;2022-07-29T03:11:14;15.50;99.90
62998;DHT22;55949;52.590;7.330;2022-07-29T03:12:16;15.50;99.90
62998;DHT22;55949;52.590;7.330;2022-07-29T03:13:17;15.50;99.90
62998;DHT22;55949;52.590;7.330;2022-07-29T03:14:19;15.50;99.90
62998;DHT22;55949;52.590;7.330;2022-07-29T03:15:20;15.50;99.90
62998;DHT22;55949;52.590;7.330;2022-07-29T03:16:22;15.60;99.90
62998;DHT22;55949;52.590;7.330;2022-07-29T03:17:24;15.60;99.90
62998;DHT22;55949;52.590;7.330;2022-07-29T03:18:26;15.60;99.90
62998;DHT22;55949;52.590;7.330;2022-07-29T03:19:27;15.60;99.90
62998;DHT22;55949;52.590;7.330;2022-07-29T03:20:28;15.60;99.90
62998;DHT22;55949;52.590;7.330;2022-07-29T03:21:28;15.60;99.90
62998;DHT22;55949;52.590;7.330;2022-07-29T03:22:29;15.60;99.90
62998;DHT22;55949;52.590;7.330;2022-07-29T03:23:30;15.50;99.90
62998;DHT22;55949;52.590;7.330;2022-07-29T03:24:33;15.50;99.90
62998;DHT22;55949;52.590;7.330;2022-07-29T03:25:35;15.40;99.90
62998;DHT22;55949;52.590;7.330;2022-07-29T03:26:35;15.50;99.90
62998;DHT22;55949;52.590;7.330;2022-07-29T03:27:36;15.40;99.90
62998;DHT22;55949;52.590;7.330;2022-07-29T03:28:37;15.40;99.90
62998;DHT22;55949;52.590;7.330;2022-07-29T03:29:38;15.40;99.90
62998;DHT22;55949;52.590;7.330;2022-07-29T03:30:38;15.40;99.90
62998;DHT22;55949;52.590;7.330;2022-07-29T03:31:39;15.40;99.90
62998;DHT22;55949;52.590;7.330;2022-07-29T03:32:40;15.40;99.90
62998;DHT22;55949;52.590;7.330;2022-07-29T03:33:41;15.40;99.90
62998;DHT22;55949;52.590;7.330;2022-07-29T03:34:42;15.40;99.90
62998;DHT22;55949;52.590;7.330;2022-07-29T03:35:43;15.30;99.90
62998;DHT22;55949;52.590;7.330;2022-07-29T03:36:43;15.30;99.90
62998;DHT22;55949;52.590;7.330;2022-07-29T03:37:45;15.30;99.90
62998;DHT22;55949;52.590;7.330;2022-07-29T03:38:46;15.30;99.90
62998;DHT22;55949;52.590;7.330;2022-07-29T03:39:51;15.30;99.90
62998;DHT22;55949;52.590;7.330;2022-07-29T03:41:09;15.30;99.90
62998;DHT22;55949;52.590;7.330;2022-07-29T03:42:14;15.30;99.90
62998;DHT22;55949;52.590;7.330;2022-07-29T03:43:17;15.30;99.90
62998;DHT22;55949;52.590;7.330;2022-07-29T03:44:19;15.30;99.90
62998;DHT22;55949;52.590;7.330;2022-07-29T03:45:22;15.30;99.90
62998;DHT22;55949;52.590;7.330;2022-07-29T03:46:24;15.30;99.90
62998;DHT22;55949;52.590;7.330;2022-07-29T03:47:28;15.30;99.90
62998;DHT22;55949;52.590;7.330;2022-07-29T03:48:32;15.30;99.90
62998;DHT22;55949;52.590;7.330;2022-07-29T03:49:35;15.30;99.90
62998;DHT22;55949;52.590;7.330;2022-07-29T03:50:37;15.30;99.90
62998;DHT22;55949;52.590;7.330;2022-07-29T03:51:38;15.30;99.90
62998;DHT22;55949;52.590;7.330;2022-07-29T03:52:39;15.40;99.90
62998;DHT22;55949;52.590;7.330;2022-07-29T03:53:40;15.40;99.90
62998;DHT22;55949;52.590;7.330;2022-07-29T03:54:41;15.30;99.90
62998;DHT22;55949;52.590;7.330;2022-07-29T03:55:48;15.30;99.90
62998;DHT22;55949;52.590;7.330;2022-07-29T03:56:52;15.30;99.90
62998;DHT22;55949;52.590;7.330;2022-07-29T03:57:55;15.30;99.90
62998;DHT22;55949;52.590;7.330;2022-07-29T03:58:58;15.30;99.90
62998;DHT22;55949;52.590;7.330;2022-07-29T04:00:00;15.30;99.90
62998;DHT22;55949;52.590;7.330;2022-07-29T04:01:02;15.40;99.90
62998;DHT22;55949;52.590;7.330;2022-07-29T04:02:04;15.40;99.90
62998;DHT22;55949;52.590;7.330;2022-07-29T04:03:05;15.40;99.90
62998;DHT22;55949;52.590;7.330;2022-07-29T04:04:06;15.40;99.90
62998;DHT22;55949;52.590;7.330;2022-07-29T04:05:12;15.30;99.90
62998;DHT22;55949;52.590;7.330;2022-07-29T04:06:13;15.30;99.90
62998;DHT22;55949;52.590;7.330;2022-07-29T04:07:15;15.30;99.90
62998;DHT22;55949;52.590;7.330;2022-07-29T04:08:16;15.30;99.90
62998;DHT22;55949;52.590;7.330;2022-07-29T04:09:16;15.20;99.90
62998;DHT22;55949;52.590;7.330;2022-07-29T04:10:17;15.20;99.90
62998;DHT22;55949;52.590;7.330;2022-07-29T04:11:19;15.20;99.90
62998;DHT22;55949;52.590;7.330;2022-07-29T04:12:20;15.20;99.90
62998;DHT22;55949;52.590;7.330;2022-07-29T04:13:21;15.20;99.90
62998;DHT22;55949;52.590;7.330;2022-07-29T04:14:22;15.20;99.90
62998;DHT22;55949;52.590;7.330;2022-07-29T04:15:22;15.30;99.90
62998;DHT22;55949;52.590;7.330;2022-07-29T04:16:23;15.30;99.90
62998;DHT22;55949;52.590;7.330;2022-07-29T04:17:24;15.30;99.90
62998;DHT22;55949;52.590;7.330;2022-07-29T04:18:25;15.30;99.90
62998;DHT22;55949;52.590;7.330;2022-07-29T04:19:26;15.30;99.90
62998;DHT22;55949;52.590;7.330;2022-07-29T04:20:26;15.40;99.90
62998;DHT22;55949;52.590;7.330;2022-07-29T04:21:27;15.30;99.90
62998;DHT22;55949;52.590;7.330;2022-07-29T04:22:28;15.40;99.90
62998;DHT22;55949;52.590;7.330;2022-07-29T04:23:29;15.40;99.90
62998;DHT22;55949;52.590;7.330;2022-07-29T04:24:34;15.40;99.90
62998;DHT22;55949;52.590;7.330;2022-07-29T04:25:39;15.40;99.90
62998;DHT22;55949;52.590;7.330;2022-07-29T04:26:40;15.40;99.90
62998;DHT22;55949;52.590;7.330;2022-07-29T04:27:41;15.40;99.90
62998;DHT22;55949;52.590;7.330;2022-07-29T04:29:00;15.40;99.90
62998;DHT22;55949;52.590;7.330;2022-07-29T04:30:01;15.40;99.90
62998;DHT22;55949;52.590;7.330;2022-07-29T04:31:02;15.40;99.90
62998;DHT22;55949;52.590;7.330;2022-07-29T04:32:03;15.50;99.90
62998;DHT22;55949;52.590;7.330;2022-07-29T04:33:05;15.50;99.90
62998;DHT22;55949;52.590;7.330;2022-07-29T04:34:07;15.50;99.90
62998;DHT22;55949;52.590;7.330;2022-07-29T04:35:08;15.50;99.90
62998;DHT22;55949;52.590;7.330;2022-07-29T04:36:09;15.50;99.90
62998;DHT22;55949;52.590;7.330;2022-07-29T04:37:11;15.50;99.90
62998;DHT22;55949;52.590;7.330;2022-07-29T04:38:12;15.50;99.90
62998;DHT22;55949;52.590;7.330;2022-07-29T04:39:12;15.50;99.90
62998;DHT22;55949;52.590;7.330;2022-07-29T04:40:13;15.50;99.90
62998;DHT22;55949;52.590;7.330;2022-07-29T04:41:14;15.50;99.90
62998;DHT22;55949;52.590;7.330;2022-07-29T04:42:15;15.50;99.90
62998;DHT22;55949;52.590;7.330;2022-07-29T04:43:15;15.50;99.90
62998;DHT22;55949;52.590;7.330;2022-07-29T04:44:16;15.50;99.90
62998;DHT22;55949;52.590;7.330;2022-07-29T04:45:17;15.50;99.90
62998;DHT22;55949;52.590;7.330;2022-07-29T04:46:18;15.50;99.90
62998;DHT22;55949;52.590;7.330;2022-07-29T04:47:19;15.50;99.90
62998;DHT22;55949;52.590;7.330;2022-07-29T04:48:19;15.50;99.90
62998;DHT22;55949;52.590;7.330;2022-07-29T04:49:20;15.50;99.90
62998;DHT22;55949;52.590;7.330;2022-07-29T04:50:21;15.50;99.90
62998;DHT22;55949;52.590;7.330;2022-07-29T04:51:22;15.50;99.90
62998;DHT22;55949;52.590;7.330;2022-07-29T04:52:23;15.50;99.90
62998;DHT22;55949;52.590;7.330;2022-07-29T04:53:24;15.40;99.90
62998;DHT22;55949;52.590;7.330;2022-07-29T04:54:25;15.50;99.90
62998;DHT22;55949;52.590;7.330;2022-07-29T04:55:26;15.40;99.90
62998;DHT22;55949;52.590;7.330;2022-07-29T04:56:27;15.40;99.90
62998;DHT22;55949;52.590;7.330;2022-07-29T04:57:27;15.40;99.90
62998;DHT22;55949;52.590;7.330;2022-07-29T04:58:28;15.40;99.90
62998;DHT22;55949;52.590;7.330;2022-07-29T04:59:29;15.50;99.90
62998;DHT22;55949;52.590;7.330;2022-07-29T05:00:30;15.50;99.90
62998;DHT22;55949;52.590;7.330;2022-07-29T05:01:30;15.60;99.90
62998;DHT22;55949;52.590;7.330;2022-07-29T05:02:31;15.60;99.90
62998;DHT22;55949;52.590;7.330;2022-07-29T05:03:32;15.70;99.90
62998;DHT22;55949;52.590;7.330;2022-07-29T05:04:32;15.70;99.90
62998;DHT22;55949;52.590;7.330;2022-07-29T05:05:33;15.70;99.90
62998;DHT22;55949;52.590;7.330;2022-07-29T05:06:34;15.70;99.90
62998;DHT22;55949;52.590;7.330;2022-07-29T05:07:35;15.70;99.90
62998;DHT22;55949;52.590;7.330;2022-07-29T05:08:35;15.70;99.90
62998;DHT22;55949;52.590;7.330;2022-07-29T05:09:36;15.70;99.90
62998;DHT22;55949;52.590;7.330;2022-07-29T05:10:37;15.70;99.90
62998;DHT22;55949;52.590;7.330;2022-07-29T05:11:38;15.70;99.90
62998;DHT22;55949;52.590;7.330;2022-07-29T05:12:39;15.70;99.90
62998;DHT22;55949;52.590;7.330;2022-07-29T05:13:39;15.80;99.90
62998;DHT22;55949;52.590;7.330;2022-07-29T05:14:40;15.80;99.90
62998;DHT22;55949;52.590;7.330;2022-07-29T05:15:41;15.90;99.90
62998;DHT22;55949;52.590;7.330;2022-07-29T05:16:41;15.90;99.90
62998;DHT22;55949;52.590;7.330;2022-07-29T05:17:44;15.90;99.90
62998;DHT22;55949;52.590;7.330;2022-07-29T05:18:44;15.90;99.90
62998;DHT22;55949;52.590;7.330;2022-07-29T05:19:45;16.00;99.90
62998;DHT22;55949;52.590;7.330;2022-07-29T05:20:46;16.10;99.90
62998;DHT22;55949;52.590;7.330;2022-07-29T05:21:46;16.10;99.90
62998;DHT22;55949;52.590;7.330;2022-07-29T05:22:48;16.10;99.90
62998;DHT22;55949;52.590;7.330;2022-07-29T05:23:49;16.10;99.90
62998;DHT22;55949;52.590;7.330;2022-07-29T05:24:49;16.10;99.90
62998;DHT22;55949;52.590;7.330;2022-07-29T05:25:50;16.10;99.90
62998;DHT22;55949;52.590;7.330;2022-07-29T05:26:51;16.10;99.90
62998;DHT22;55949;52.590;7.330;2022-07-29T05:27:53;16.20;99.90
62998;DHT22;55949;52.590;7.330;2022-07-29T05:28:54;16.10;99.90
62998;DHT22;55949;52.590;7.330;2022-07-29T05:29:55;16.10;99.90
62998;DHT22;55949;52.590;7.330;2022-07-29T05:30:55;16.10;99.90
62998;DHT22;55949;52.590;7.330;2022-07-29T05:31:56;16.10;99.90
62998;DHT22;55949;52.590;7.330;2022-07-29T05:32:57;16.10;99.90
62998;DHT22;55949;52.590;7.330;2022-07-29T05:33:58;16.10;99.90
62998;DHT22;55949;52.590;7.330;2022-07-29T05:34:59;16.10;99.90
62998;DHT22;55949;52.590;7.330;2022-07-29T05:35:59;16.10;99.90
62998;DHT22;55949;52.590;7.330;2022-07-29T05:37:00;16.10;99.90
62998;DHT22;55949;52.590;7.330;2022-07-29T05:38:01;16.20;99.90
62998;DHT22;55949;52.590;7.330;2022-07-29T05:39:02;16.20;99.90
62998;DHT22;55949;52.590;7.330;2022-07-29T05:40:03;16.20;99.90
62998;DHT22;55949;52.590;7.330;2022-07-29T05:41:04;16.20;99.90
62998;DHT22;55949;52.590;7.330;2022-07-29T05:42:09;16.20;99.90
62998;DHT22;55949;52.590;7.330;2022-07-29T05:43:10;16.20;99.90
62998;DHT22;55949;52.590;7.330;2022-07-29T05:44:11;16.20;99.90
62998;DHT22;55949;52.590;7.330;2022-07-29T05:45:13;16.20;99.90
62998;DHT22;55949;52.590;7.330;2022-07-29T05:46:14;16.20;99.90
62998;DHT22;55949;52.590;7.330;2022-07-29T05:47:15;16.20;99.90
62998;DHT22;55949;52.590;7.330;2022-07-29T05:48:16;16.20;99.90
62998;DHT22;55949;52.590;7.330;2022-07-29T05:49:17;16.20;99.90
62998;DHT22;55949;52.590;7.330;2022-07-29T05:50:18;16.20;99.90
62998;DHT22;55949;52.590;7.330;2022-07-29T05:51:19;16.20;99.90
62998;DHT22;55949;52.590;7.330;2022-07-29T05:52:20;16.20;99.90
62998;DHT22;55949;52.590;7.330;2022-07-29T05:53:21;16.30;99.90
62998;DHT22;55949;52.590;7.330;2022-07-29T05:54:21;16.30;99.90
62998;DHT22;55949;52.590;7.330;2022-07-29T05:55:22;16.30;99.90
62998;DHT22;55949;52.590;7.330;2022-07-29T05:56:23;16.30;99.90
62998;DHT22;55949;52.590;7.330;2022-07-29T05:57:24;16.30;99.90
62998;DHT22;55949;52.590;7.330;2022-07-29T05:58:25;16.40;99.90
62998;DHT22;55949;52.590;7.330;2022-07-29T05:59:26;16.40;99.90
62998;DHT22;55949;52.590;7.330;2022-07-29T06:00:26;16.40;99.90
62998;DHT22;55949;52.590;7.330;2022-07-29T06:01:27;16.40;99.90
62998;DHT22;55949;52.590;7.330;2022-07-29T06:02:28;16.40;99.90
62998;DHT22;55949;52.590;7.330;2022-07-29T06:03:29;16.40;99.90
62998;DHT22;55949;52.590;7.330;2022-07-29T06:04:31;16.50;99.90
62998;DHT22;55949;52.590;7.330;2022-07-29T06:05:32;16.60;99.90
62998;DHT22;55949;52.590;7.330;2022-07-29T06:06:33;16.60;99.90
62998;DHT22;55949;52.590;7.330;2022-07-29T06:07:34;16.60;99.90
62998;DHT22;55949;52.590;7.330;2022-07-29T06:08:36;16.70;99.90
62998;DHT22;55949;52.590;7.330;2022-07-29T06:09:37;16.70;99.90
62998;DHT22;55949;52.590;7.330;2022-07-29T06:10:38;16.80;99.90
62998;DHT22;55949;52.590;7.330;2022-07-29T06:11:39;16.90;99.90
62998;DHT22;55949;52.590;7.330;2022-07-29T06:12:40;16.90;99.90
62998;DHT22;55949;52.590;7.330;2022-07-29T06:13:41;17.00;99.90
62998;DHT22;55949;52.590;7.330;2022-07-29T06:14:42;17.00;99.90
62998;DHT22;55949;52.590;7.330;2022-07-29T06:15:43;17.10;99.90
62998;DHT22;55949;52.590;7.330;2022-07-29T06:16:44;17.20;99.90
62998;DHT22;55949;52.590;7.330;2022-07-29T06:17:45;17.20;99.90
62998;DHT22;55949;52.590;7.330;2022-07-29T06:18:45;17.30;99.90
62998;DHT22;55949;52.590;7.330;2022-07-29T06:19:46;17.40;99.90
62998;DHT22;55949;52.590;7.330;2022-07-29T06:20:47;17.40;99.90
62998;DHT22;55949;52.590;7.330;2022-07-29T06:21:47;17.40;99.90
62998;DHT22;55949;52.590;7.330;2022-07-29T06:22:48;17.40;99.90
62998;DHT22;55949;52.590;7.330;2022-07-29T06:23:49;17.40;99.90
62998;DHT22;55949;52.590;7.330;2022-07-29T06:24:50;17.30;99.90
62998;DHT22;55949;52.590;7.330;2022-07-29T06:25:50;17.30;99.90
62998;DHT22;55949;52.590;7.330;2022-07-29T06:26:51;17.40;99.90
62998;DHT22;55949;52.590;7.330;2022-07-29T06:27:52;17.40;99.90
62998;DHT22;55949;52.590;7.330;2022-07-29T06:28:53;17.40;99.90
62998;DHT22;55949;52.590;7.330;2022-07-29T06:29:53;17.50;99.90
62998;DHT22;55949;52.590;7.330;2022-07-29T06:30:54;17.50;99.90
62998;DHT22;55949;52.590;7.330;2022-07-29T06:31:55;17.50;99.90
62998;DHT22;55949;52.590;7.330;2022-07-29T06:32:55;17.50;99.90
62998;DHT22;55949;52.590;7.330;2022-07-29T06:33:56;17.50;99.90
62998;DHT22;55949;52.590;7.330;2022-07-29T06:34:57;17.50;99.90
62998;DHT22;55949;52.590;7.330;2022-07-29T06:35:58;17.50;99.90
62998;DHT22;55949;52.590;7.330;2022-07-29T06:36:58;17.60;99.90
62998;DHT22;55949;52.590;7.330;2022-07-29T06:37:59;17.60;99.90
62998;DHT22;55949;52.590;7.330;2022-07-29T06:39:00;17.60;99.90
62998;DHT22;55949;52.590;7.330;2022-07-29T06:40:01;17.50;99.90
62998;DHT22;55949;52.590;7.330;2022-07-29T06:41:20;17.50;99.90
62998;DHT22;55949;52.590;7.330;2022-07-29T06:42:22;17.50;99.90
62998;DHT22;55949;52.590;7.330;2022-07-29T06:43:23;17.50;99.90
62998;DHT22;55949;52.590;7.330;2022-07-29T06:44:24;17.60;99.90
62998;DHT22;55949;52.590;7.330;2022-07-29T06:45:25;17.70;99.90
62998;DHT22;55949;52.590;7.330;2022-07-29T06:46:25;17.80;99.90
62998;DHT22;55949;52.590;7.330;2022-07-29T06:47:26;17.90;99.90
62998;DHT22;55949;52.590;7.330;2022-07-29T06:48:27;18.10;99.90